sensor_id;sensor_type;location;lat;lon;timestamp;temperature;humidity
5711;DHT22;61291;52.524;13.422;2022-12-07T00:02:04;4.50;99.90
5711;DHT22;61291;52.524;13.422;2022-12-07T00:04:30;4.40;99.90
5711;DHT22;61291;52.524;13.422;2022-12-07T00:06:55;4.40;99.90
5711;DHT22;61291;52.524;13.422;2022-12-07T00:09:21;4.40;99.90
5711;DHT22;61291;52.524;13.422;2022-12-07T00:11:49;4.40;99.90
5711;DHT22;61291;52.524;13.422;2022-12-07T00:14:16;4.40;99.90
5711;DHT22;61291;52.524;13.422;2022-12-07T00:16:43;4.40;99.90
5711;DHT22;61291;52.524;13.422;2022-12-07T00:19:10;4.40;99.90
5711;DHT22;61291;52.524;13.422;2022-12-07T00:21:37;4.40;99.90
5711;DHT22;61291;52.524;13.422;2022-12-07T00:24:04;4.40;99.90
5711;DHT22;61291;52.524;13.422;2022-12-07T00:26:38;4.40;99.90
5711;DHT22;61291;52.524;13.422;2022-12-07T00:29:13;4.40;99.90
5711;DHT22;61291;52.524;13.422;2022-12-07T00:31:39;4.40;99.90
5711;DHT22;61291;52.524;13.422;2022-12-07T00:34:06;4.40;99.90
5711;DHT22;61291;52.524;13.422;2022-12-07T00:36:32;4.30;99.90
5711;DHT22;61291;52.524;13.422;2022-12-07T00:39:00;4.30;99.90
5711;DHT22;61291;52.524;13.422;2022-12-07T00:41:29;4.30;99.90
5711;DHT22;61291;52.524;13.422;2022-12-07T00:43:55;4.30;99.90
5711;DHT22;61291;52.524;13.422;2022-12-07T00:46:21;4.30;99.90
5711;DHT22;61291;52.524;13.422;2022-12-07T00:48:48;4.30;99.90
5711;DHT22;61291;52.524;13.422;2022-12-07T00:51:15;4.30;99.90
5711;DHT22;61291;52.524;13.422;2022-12-07T00:53:41;4.20;99.90
5711;DHT22;61291;52.524;13.422;2022-12-07T00:56:11;4.10;99.90
5711;DHT22;61291;52.524;13.422;2022-12-07T00:58:37;4.10;99.90
5711;DHT22;61291;52.524;13.422;2022-12-07T01:01:04;3.90;99.90
5711;DHT22;61291;52.524;13.422;2022-12-07T01:03:30;3.80;99.90
5711;DHT22;61291;52.524;13.422;2022-12-07T01:05:56;3.60;99.90
5711;DHT22;61291;52.524;13.422;2022-12-07T01:08:23;3.50;99.90
5711;DHT22;61291;52.524;13.422;2022-12-07T01:10:56;3.30;99.90
5711;DHT22;61291;52.524;13.422;2022-12-07T01:13:22;3.20;99.90
5711;DHT22;61291;52.524;13.422;2022-12-07T01:15:47;3.10;99.90
5711;DHT22;61291;52.524;13.422;2022-12-07T01:18:13;3.20;99.90
5711;DHT22;61291;52.524;13.422;2022-12-07T01:20:38;3.20;99.90
5711;DHT22;61291;52.524;13.422;2022-12-07T01:23:04;3.40;99.90
5711;DHT22;61291;52.524;13.422;2022-12-07T01:25:29;3.40;99.90
5711;DHT22;61291;52.524;13.422;2022-12-07T01:27:55;3.50;99.90
5711;DHT22;61291;52.524;13.422;2022-12-07T01:30:20;3.60;99.90
5711;DHT22;61291;52.524;13.422;2022-12-07T01:32:46;3.60;99.90
5711;DHT22;61291;52.524;13.422;2022-12-07T01:35:11;3.60;99.90
5711;DHT22;61291;52.524;13.422;2022-12-07T01:37:38;3.70;99.90
5711;DHT22;61291;52.524;13.422;2022-12-07T01:40:05;3.80;99.90
5711;DHT22;61291;52.524;13.422;2022-12-07T01:42:31;3.70;99.90
5711;DHT22;61291;52.524;13.422;2022-12-07T01:45:34;3.60;99.90
5711;DHT22;61291;52.524;13.422;2022-12-07T01:48:02;3.60;99.90
5711;DHT22;61291;52.524;13.422;2022-12-07T01:50:29;3.60;99.90
5711;DHT22;61291;52.524;13.422;2022-12-07T01:52:57;3.70;99.90
5711;DHT22;61291;52.524;13.422;2022-12-07T01:55:25;3.70;99.90
5711;DHT22;61291;52.524;13.422;2022-12-07T01:57:52;3.70;99.90
5711;DHT22;61291;52.524;13.422;2022-12-07T02:00:19;3.80;99.90
5711;DHT22;61291;52.524;13.422;2022-12-07T02:03:09;3.80;99.90
5711;DHT22;61291;52.524;13.422;2022-12-07T02:05:40;3.80;99.90
5711;DHT22;61291;52.524;13.422;2022-12-07T02:08:07;3.80;99.90
5711;DHT22;61291;52.524;13.422;2022-12-07T02:10:33;3.80;99.90
5711;DHT22;61291;52.524;13.422;2022-12-07T02:13:13;3.70;99.90
5711;DHT22;61291;52.524;13.422;2022-12-07T02:16:08;3.80;99.90
5711;DHT22;61291;52.524;13.422;2022-12-07T02:18:50;3.70;99.90
5711;DHT22;61291;52.524;13.422;2022-12-07T02:21:36;3.70;99.90
5711;DHT22;61291;52.524;13.422;2022-12-07T02:27:17;3.50;99.90
5711;DHT22;61291;52.524;13.422;2022-12-07T02:29:57;3.40;99.90
5711;DHT22;61291;52.524;13.422;2022-12-07T02:37:54;3.40;99.90
5711;DHT22;61291;52.524;13.422;2022-12-07T02:40:33;3.30;99.90
5711;DHT22;61291;52.524;13.422;2022-12-07T02:43:57;3.10;99.90
5711;DHT22;61291;52.524;13.422;2022-12-07T02:46:03;3.10;99.90
5711;DHT22;61291;52.524;13.422;2022-12-07T02:48:32;3.00;99.90
5711;DHT22;61291;52.524;13.422;2022-12-07T02:50:58;3.00;99.90
5711;DHT22;61291;52.524;13.422;2022-12-07T02:53:41;3.00;99.90
5711;DHT22;61291;52.524;13.422;2022-12-07T02:56:17;3.00;99.90
5711;DHT22;61291;52.524;13.422;2022-12-07T02:59:02;3.10;99.90
5711;DHT22;61291;52.524;13.422;2022-12-07T03:01:55;3.10;99.90
5711;DHT22;61291;52.524;13.422;2022-12-07T03:04:42;3.20;99.90
5711;DHT22;61291;52.524;13.422;2022-12-07T03:07:25;3.20;99.90
5711;DHT22;61291;52.524;13.422;2022-12-07T03:13:16;3.30;99.90
5711;DHT22;61291;52.524;13.422;2022-12-07T03:15:56;3.40;99.90
5711;DHT22;61291;52.524;13.422;2022-12-07T03:18:25;3.50;99.90
5711;DHT22;61291;52.524;13.422;2022-12-07T03:20:55;3.50;99.90
5711;DHT22;61291;52.524;13.422;2022-12-07T03:23:23;3.50;99.90
5711;DHT22;61291;52.524;13.422;2022-12-07T03:25:55;3.60;99.90
5711;DHT22;61291;52.524;13.422;2022-12-07T03:28:24;3.70;99.90
5711;DHT22;61291;52.524;13.422;2022-12-07T03:31:03;3.80;99.90
5711;DHT22;61291;52.524;13.422;2022-12-07T03:33:39;3.80;99.90
5711;DHT22;61291;52.524;13.422;2022-12-07T03:36:19;3.90;99.90
5711;DHT22;61291;52.524;13.422;2022-12-07T03:38:53;3.90;99.90
5711;DHT22;61291;52.524;13.422;2022-12-07T03:41:31;4.00;99.90
5711;DHT22;61291;52.524;13.422;2022-12-07T03:43:58;4.10;99.90
5711;DHT22;61291;52.524;13.422;2022-12-07T03:46:35;4.00;99.90
5711;DHT22;61291;52.524;13.422;2022-12-07T03:49:11;4.10;99.90
5711;DHT22;61291;52.524;13.422;2022-12-07T03:51:47;4.10;99.90
5711;DHT22;61291;52.524;13.422;2022-12-07T03:54:19;4.10;99.90
5711;DHT22;61291;52.524;13.422;2022-12-07T03:56:47;4.00;99.90
5711;DHT22;61291;52.524;13.422;2022-12-07T03:59:14;4.00;99.90
5711;DHT22;61291;52.524;13.422;2022-12-07T04:01:45;4.00;99.90
5711;DHT22;61291;52.524;13.422;2022-12-07T04:04:16;4.00;99.90
5711;DHT22;61291;52.524;13.422;2022-12-07T04:06:42;4.00;99.90
5711;DHT22;61291;52.524;13.422;2022-12-07T04:09:07;4.00;99.90
5711;DHT22;61291;52.524;13.422;2022-12-07T04:11:33;4.00;99.90
5711;DHT22;61291;52.524;13.422;2022-12-07T04:13:58;4.00;99.90
5711;DHT22;61291;52.524;13.422;2022-12-07T04:16:42;4.00;99.90
5711;DHT22;61291;52.524;13.422;2022-12-07T04:19:08;4.00;99.90
5711;DHT22;61291;52.524;13.422;2022-12-07T04:21:33;3.90;99.90
5711;DHT22;61291;52.524;13.422;2022-12-07T04:23:59;3.90;99.90
5711;DHT22;61291;52.524;13.422;2022-12-07T04:26:24;4.00;99.90
5711;DHT22;61291;52.524;13.422;2022-12-07T04:28:50;4.00;99.90
5711;DHT22;61291;52.524;13.422;2022-12-07T04:31:15;4.00;99.90
5711;DHT22;61291;52.524;13.422;2022-12-07T04:33:41;4.00;99.90
5711;DHT22;61291;52.524;13.422;2022-12-07T04:36:06;4.00;99.90
5711;DHT22;61291;52.524;13.422;2022-12-07T04:38:32;4.00;99.90
5711;DHT22;61291;52.524;13.422;2022-12-07T04:40:58;4.00;99.90
5711;DHT22;61291;52.524;13.422;2022-12-07T04:43:23;4.00;99.90
5711;DHT22;61291;52.524;13.422;2022-12-07T04:45:49;4.00;99.90
5711;DHT22;61291;52.524;13.422;2022-12-07T04:48:15;4.00;99.90
5711;DHT22;61291;52.524;13.422;2022-12-07T04:50:41;3.90;99.90
5711;DHT22;61291;52.524;13.422;2022-12-07T04:53:06;3.90;99.90
5711;DHT22;61291;52.524;13.422;2022-12-07T04:55:32;3.90;99.90
5711;DHT22;61291;52.524;13.422;2022-12-07T04:57:57;3.90;99.90
5711;DHT22;61291;52.524;13.422;2022-12-07T05:00:23;3.90;99.90
5711;DHT22;61291;52.524;13.422;2022-12-07T05:02:48;3.90;99.90
5711;DHT22;61291;52.524;13.422;2022-12-07T05:05:14;3.90;99.90
5711;DHT22;61291;52.524;13.422;2022-12-07T05:07:39;3.90;99.90
5711;DHT22;61291;52.524;13.422;2022-12-07T05:10:05;4.00;99.90
5711;DHT22;61291;52.524;13.422;2022-12-07T05:12:31;4.10;99.90
5711;DHT22;61291;52.524;13.422;2022-12-07T05:14:56;4.10;99.90
5711;DHT22;61291;52.524;13.422;2022-12-07T05:17:22;4.10;99.90
5711;DHT22;61291;52.524;13.422;2022-12-07T05:19:47;4.10;99.90
5711;DHT22;61291;52.524;13.422;2022-12-07T05:22:13;4.10;99.90
5711;DHT22;61291;52.524;13.422;2022-12-07T05:24:38;4.20;99.90
5711;DHT22;61291;52.524;13.422;2022-12-07T05:27:04;4.20;99.90
5711;DHT22;61291;52.524;13.422;2022-12-07T05:29:29;4.20;99.90
5711;DHT22;61291;52.524;13.422;2022-12-07T05:31:55;4.20;99.90
5711;DHT22;61291;52.524;13.422;2022-12-07T05:34:21;4.20;99.90
5711;DHT22;61291;52.524;13.422;2022-12-07T05:36:46;4.30;99.90
5711;DHT22;61291;52.524;13.422;2022-12-07T05:39:12;4.30;99.90
5711;DHT22;61291;52.524;13.422;2022-12-07T05:41:37;4.30;99.90
5711;DHT22;61291;52.524;13.422;2022-12-07T05:44:21;4.40;99.90
5711;DHT22;61291;52.524;13.422;2022-12-07T05:46:47;4.40;99.90
5711;DHT22;61291;52.524;13.422;2022-12-07T05:49:12;4.40;99.90
5711;DHT22;61291;52.524;13.422;2022-12-07T05:51:38;4.40;99.90
5711;DHT22;61291;52.524;13.422;2022-12-07T05:54:03;4.50;99.90
5711;DHT22;61291;52.524;13.422;2022-12-07T05:56:29;4.50;99.90
5711;DHT22;61291;52.524;13.422;2022-12-07T05:58:54;4.50;99.90
5711;DHT22;61291;52.524;13.422;2022-12-07T06:01:39;4.50;99.90
5711;DHT22;61291;52.524;13.422;2022-12-07T06:04:05;4.50;99.90
5711;DHT22;61291;52.524;13.422;2022-12-07T06:06:30;4.60;99.90
5711;DHT22;61291;52.524;13.422;2022-12-07T06:08:56;4.60;99.90
5711;DHT22;61291;52.524;13.422;2022-12-07T06:11:21;4.70;99.90
5711;DHT22;61291;52.524;13.422;2022-12-07T06:14:05;4.70;99.90
5711;DHT22;61291;52.524;13.422;2022-12-07T06:16:31;4.70;99.90
5711;DHT22;61291;52.524;13.422;2022-12-07T06:18:56;4.70;99.90
5711;DHT22;61291;52.524;13.422;2022-12-07T06:21:22;4.80;99.90
5711;DHT22;61291;52.524;13.422;2022-12-07T06:23:47;4.80;99.90
5711;DHT22;61291;52.524;13.422;2022-12-07T06:26:13;4.80;99.90
5711;DHT22;61291;52.524;13.422;2022-12-07T06:28:38;4.80;99.90
5711;DHT22;61291;52.524;13.422;2022-12-07T06:31:04;4.90;99.90
5711;DHT22;61291;52.524;13.422;2022-12-07T06:33:30;4.80;99.90
5711;DHT22;61291;52.524;13.422;2022-12-07T06:35:56;4.80;99.90
5711;DHT22;61291;52.524;13.422;2022-12-07T06:38:21;4.80;99.90
5711;DHT22;61291;52.524;13.422;2022-12-07T06:40:47;4.80;99.90
5711;DHT22;61291;52.524;13.422;2022-12-07T06:43:13;4.80;99.90
5711;DHT22;61291;52.524;13.422;2022-12-07T06:45:38;4.80;99.90
5711;DHT22;61291;52.524;13.422;2022-12-07T06:48:05;4.80;99.90
5711;DHT22;61291;52.524;13.422;2022-12-07T06:50:30;4.80;99.90
5711;DHT22;61291;52.524;13.422;2022-12-07T06:52:56;4.80;99.90
5711;DHT22;61291;52.524;13.422;2022-12-07T06:55:21;4.70;99.90
5711;DHT22;61291;52.524;13.422;2022-12-07T06:57:47;4.80;99.90
5711;DHT22;61291;52.524;13.422;2022-12-07T07:00:13;4.80;99.90
5711;DHT22;61291;52.524;13.422;2022-12-07T07:02:38;4.80;99.90
5711;DHT22;61291;52.524;13.422;2022-12-07T07:05:04;4.80;99.90
5711;DHT22;61291;52.524;13.422;2022-12-07T07:07:29;4.90;99.90
5711;DHT22;61291;52.524;13.422;2022-12-07T07:09:55;4.90;99.90
5711;DHT22;61291;52.524;13.422;2022-12-07T07:12:20;4.90;99.90
5711;DHT22;61291;52.524;13.422;2022-12-07T07:14:46;4.90;99.90
5711;DHT22;61291;52.524;13.422;2022-12-07T07:17:12;4.90;99.90
5711;DHT22;61291;52.524;13.422;2022-12-07T07:19:38;5.00;99.90
5711;DHT22;61291;52.524;13.422;2022-12-07T07:22:03;5.00;99.90
5711;DHT22;61291;52.524;13.422;2022-12-07T07:24:29;5.00;99.90
5711;DHT22;61291;52.524;13.422;2022-12-07T07:26:54;5.00;99.90
5711;DHT22;61291;52.524;13.422;2022-12-07T07:29:20;5.10;99.90
5711;DHT22;61291;52.524;13.422;2022-12-07T07:31:46;5.10;99.90
5711;DHT22;61291;52.524;13.422;2022-12-07T07:34:11;5.10;99.90
5711;DHT22;61291;52.524;13.422;2022-12-07T07:36:37;5.10;99.90
5711;DHT22;61291;52.524;13.422;2022-12-07T07:39:03;5.10;99.90
5711;DHT22;61291;52.524;13.422;2022-12-07T07:41:28;5.10;99.90
5711;DHT22;61291;52.524;13.422;2022-12-07T07:43:54;5.10;99.90
5711;DHT22;61291;52.524;13.422;2022-12-07T07:46:19;5.10;99.90
5711;DHT22;61291;52.524;13.422;2022-12-07T07:48:45;4.90;99.90
5711;DHT22;61291;52.524;13.422;2022-12-07T07:51:10;4.90;99.90
5711;DHT22;61291;52.524;13.422;2022-12-07T07:53:36;4.90;99.90
5711;DHT22;61291;52.524;13.422;2022-12-07T07:56:01;5.00;99.90
5711;DHT22;61291;52.524;13.422;2022-12-07T07:58:27;5.10;99.90
5711;DHT22;61291;52.524;13.422;2022-12-07T08:00:52;5.20;99.90
5711;DHT22;61291;52.524;13.422;2022-12-07T08:03:18;5.40;99.90
5711;DHT22;61291;52.524;13.422;2022-12-07T08:05:44;5.40;99.90
5711;DHT22;61291;52.524;13.422;2022-12-07T08:08:09;5.50;99.90
5711;DHT22;61291;52.524;13.422;2022-12-07T08:10:35;5.50;99.90
5711;DHT22;61291;52.524;13.422;2022-12-07T08:13:00;5.50;99.90
5711;DHT22;61291;52.524;13.422;2022-12-07T08:15:43;5.50;99.90
5711;DHT22;61291;52.524;13.422;2022-12-07T08:18:09;5.60;99.90
5711;DHT22;61291;52.524;13.422;2022-12-07T08:20:36;5.70;99.90
5711;DHT22;61291;52.524;13.422;2022-12-07T08:23:03;5.70;99.90
5711;DHT22;61291;52.524;13.422;2022-12-07T08:25:29;5.70;99.90
5711;DHT22;61291;52.524;13.422;2022-12-07T08:27:55;5.80;99.90
5711;DHT22;61291;52.524;13.422;2022-12-07T08:30:20;5.90;99.90
5711;DHT22;61291;52.524;13.422;2022-12-07T08:32:47;6.00;99.90
5711;DHT22;61291;52.524;13.422;2022-12-07T08:35:14;6.10;99.90
5711;DHT22;61291;52.524;13.422;2022-12-07T08:37:40;6.10;99.90
5711;DHT22;61291;52.524;13.422;2022-12-07T08:40:06;6.10;99.90
5711;DHT22;61291;52.524;13.422;2022-12-07T08:42:32;6.20;99.90
5711;DHT22;61291;52.524;13.422;2022-12-07T08:45:07;6.30;99.90
5711;DHT22;61291;52.524;13.422;2022-12-07T08:47:34;6.30;99.90
5711;DHT22;61291;52.524;13.422;2022-12-07T08:50:01;6.30;99.90
5711;DHT22;61291;52.524;13.422;2022-12-07T08:52:29;6.30;99.90
5711;DHT22;61291;52.524;13.422;2022-12-07T08:54:55;6.30;99.90
5711;DHT22;61291;52.524;13.422;2022-12-07T08:57:21;6.20;99.90
5711;DHT22;61291;52.524;13.422;2022-12-07T08:59:46;6.30;99.90
5711;DHT22;61291;52.524;13.422;2022-12-07T09:02:12;6.30;99.90
5711;DHT22;61291;52.524;13.422;2022-12-07T09:04:38;6.40;99.90
5711;DHT22;61291;52.524;13.422;2022-12-07T09:07:03;6.50;99.90
5711;DHT22;61291;52.524;13.422;2022-12-07T09:09:29;6.60;99.90
5711;DHT22;61291;52.524;13.422;2022-12-07T09:11:54;6.80;99.90
5711;DHT22;61291;52.524;13.422;2022-12-07T09:14:21;6.90;99.90
5711;DHT22;61291;52.524;13.422;2022-12-07T09:16:46;6.90;99.90
5711;DHT22;61291;52.524;13.422;2022-12-07T09:19:12;7.00;99.90
5711;DHT22;61291;52.524;13.422;2022-12-07T09:21:38;7.20;99.90
5711;DHT22;61291;52.524;13.422;2022-12-07T09:24:03;7.30;99.90
5711;DHT22;61291;52.524;13.422;2022-12-07T09:26:29;7.30;99.90
5711;DHT22;61291;52.524;13.422;2022-12-07T09:28:54;7.20;99.90
5711;DHT22;61291;52.524;13.422;2022-12-07T09:31:19;6.80;99.90
5711;DHT22;61291;52.524;13.422;2022-12-07T09:33:45;6.50;99.90
5711;DHT22;61291;52.524;13.422;2022-12-07T09:36:10;6.30;99.90
5711;DHT22;61291;52.524;13.422;2022-12-07T09:38:36;6.20;99.90
5711;DHT22;61291;52.524;13.422;2022-12-07T09:41:06;6.10;99.90
5711;DHT22;61291;52.524;13.422;2022-12-07T09:43:35;6.10;99.90
5711;DHT22;61291;52.524;13.422;2022-12-07T09:46:01;5.90;99.90
5711;DHT22;61291;52.524;13.422;2022-12-07T09:48:33;5.90;99.90
5711;DHT22;61291;52.524;13.422;2022-12-07T09:51:01;5.80;99.90
5711;DHT22;61291;52.524;13.422;2022-12-07T09:53:30;6.20;99.90
5711;DHT22;61291;52.524;13.422;2022-12-07T09:55:56;6.10;99.90
5711;DHT22;61291;52.524;13.422;2022-12-07T09:58:24;6.00;99.90
5711;DHT22;61291;52.524;13.422;2022-12-07T10:00:55;6.10;99.90
5711;DHT22;61291;52.524;13.422;2022-12-07T10:03:22;6.20;99.90
5711;DHT22;61291;52.524;13.422;2022-12-07T10:05:50;6.10;99.90
5711;DHT22;61291;52.524;13.422;2022-12-07T10:08:16;5.90;99.90
5711;DHT22;61291;52.524;13.422;2022-12-07T10:10:43;5.80;99.90
5711;DHT22;61291;52.524;13.422;2022-12-07T10:13:12;5.80;99.90
5711;DHT22;61291;52.524;13.422;2022-12-07T10:23:30;6.00;99.90
5711;DHT22;61291;52.524;13.422;2022-12-07T10:25:55;5.70;99.90
5711;DHT22;61291;52.524;13.422;2022-12-07T10:28:21;5.80;99.90
5711;DHT22;61291;52.524;13.422;2022-12-07T10:30:48;5.90;99.90
5711;DHT22;61291;52.524;13.422;2022-12-07T10:33:28;6.10;99.90
5711;DHT22;61291;52.524;13.422;2022-12-07T10:35:54;6.10;99.90
5711;DHT22;61291;52.524;13.422;2022-12-07T10:38:20;6.10;99.90
5711;DHT22;61291;52.524;13.422;2022-12-07T10:40:46;6.20;99.90
5711;DHT22;61291;52.524;13.422;2022-12-07T10:45:59;6.40;99.90
5711;DHT22;61291;52.524;13.422;2022-12-07T10:48:43;6.40;99.90
5711;DHT22;61291;52.524;13.422;2022-12-07T10:51:18;6.40;99.90
5711;DHT22;61291;52.524;13.422;2022-12-07T10:59:57;6.30;99.90
5711;DHT22;61291;52.524;13.422;2022-12-07T11:05:28;6.50;99.90
5711;DHT22;61291;52.524;13.422;2022-12-07T11:10:56;6.90;99.90
5711;DHT22;61291;52.524;13.422;2022-12-07T11:13:29;6.80;99.90
5711;DHT22;61291;52.524;13.422;2022-12-07T11:21:56;6.60;99.90
5711;DHT22;61291;52.524;13.422;2022-12-07T11:30:01;6.60;99.90
5711;DHT22;61291;52.524;13.422;2022-12-07T11:32:57;6.60;99.90
5711;DHT22;61291;52.524;13.422;2022-12-07T11:35:45;6.70;99.90
5711;DHT22;61291;52.524;13.422;2022-12-07T11:38:15;6.60;99.90
5711;DHT22;61291;52.524;13.422;2022-12-07T11:40:46;6.60;99.90
5711;DHT22;61291;52.524;13.422;2022-12-07T11:43:33;6.60;99.90
5711;DHT22;61291;52.524;13.422;2022-12-07T11:46:08;6.60;99.90
5711;DHT22;61291;52.524;13.422;2022-12-07T11:48:43;6.70;99.90
5711;DHT22;61291;52.524;13.422;2022-12-07T11:51:11;6.70;99.90
5711;DHT22;61291;52.524;13.422;2022-12-07T11:54:02;6.80;99.90
5711;DHT22;61291;52.524;13.422;2022-12-07T11:56:27;6.90;99.90
5711;DHT22;61291;52.524;13.422;2022-12-07T12:06:42;7.20;99.90
5711;DHT22;61291;52.524;13.422;2022-12-07T12:09:16;7.30;99.90
5711;DHT22;61291;52.524;13.422;2022-12-07T12:12:07;7.40;99.90
5711;DHT22;61291;52.524;13.422;2022-12-07T12:14:44;7.40;99.90
5711;DHT22;61291;52.524;13.422;2022-12-07T12:17:32;7.50;99.90
5711;DHT22;61291;52.524;13.422;2022-12-07T12:20:21;7.50;99.90
5711;DHT22;61291;52.524;13.422;2022-12-07T12:22:53;7.40;99.90
5711;DHT22;61291;52.524;13.422;2022-12-07T12:25:36;7.50;99.90
5711;DHT22;61291;52.524;13.422;2022-12-07T12:28:03;7.70;99.90
5711;DHT22;61291;52.524;13.422;2022-12-07T12:30:35;7.70;99.90
5711;DHT22;61291;52.524;13.422;2022-12-07T12:33:28;7.70;99.90
5711;DHT22;61291;52.524;13.422;2022-12-07T12:47:02;7.60;99.90
5711;DHT22;61291;52.524;13.422;2022-12-07T12:54:36;7.30;99.90
5711;DHT22;61291;52.524;13.422;2022-12-07T12:57:27;7.30;99.90
5711;DHT22;61291;52.524;13.422;2022-12-07T13:02:29;7.20;99.90
5711;DHT22;61291;52.524;13.422;2022-12-07T13:15:43;7.00;99.90
5711;DHT22;61291;52.524;13.422;2022-12-07T13:20:48;6.90;99.90
5711;DHT22;61291;52.524;13.422;2022-12-07T13:23:19;6.70;99.90
5711;DHT22;61291;52.524;13.422;2022-12-07T13:25:54;6.60;99.90
5711;DHT22;61291;52.524;13.422;2022-12-07T13:28:21;6.50;99.90
5711;DHT22;61291;52.524;13.422;2022-12-07T13:33:34;6.40;99.90
5711;DHT22;61291;52.524;13.422;2022-12-07T13:36:00;6.40;99.90
5711;DHT22;61291;52.524;13.422;2022-12-07T13:38:32;6.30;99.90
5711;DHT22;61291;52.524;13.422;2022-12-07T13:43:29;6.30;99.90
5711;DHT22;61291;52.524;13.422;2022-12-07T13:45:59;6.20;99.90
5711;DHT22;61291;52.524;13.422;2022-12-07T13:48:55;6.20;99.90
5711;DHT22;61291;52.524;13.422;2022-12-07T13:51:25;6.20;99.90
5711;DHT22;61291;52.524;13.422;2022-12-07T13:54:08;6.30;99.90
5711;DHT22;61291;52.524;13.422;2022-12-07T13:56:35;6.30;99.90
5711;DHT22;61291;52.524;13.422;2022-12-07T13:59:01;6.20;99.90
5711;DHT22;61291;52.524;13.422;2022-12-07T14:01:27;6.20;99.90
5711;DHT22;61291;52.524;13.422;2022-12-07T14:03:53;6.20;99.90
5711;DHT22;61291;52.524;13.422;2022-12-07T14:06:27;6.20;99.90
5711;DHT22;61291;52.524;13.422;2022-12-07T14:09:26;6.20;99.90
5711;DHT22;61291;52.524;13.422;2022-12-07T14:11:53;6.10;99.90
5711;DHT22;61291;52.524;13.422;2022-12-07T14:14:25;6.10;99.90
5711;DHT22;61291;52.524;13.422;2022-12-07T14:16:57;6.10;99.90
5711;DHT22;61291;52.524;13.422;2022-12-07T14:22:23;6.00;99.90
5711;DHT22;61291;52.524;13.422;2022-12-07T14:24:49;6.10;99.90
5711;DHT22;61291;52.524;13.422;2022-12-07T14:27:20;6.00;99.90
5711;DHT22;61291;52.524;13.422;2022-12-07T14:29:46;6.00;99.90
5711;DHT22;61291;52.524;13.422;2022-12-07T14:32:23;6.00;99.90
5711;DHT22;61291;52.524;13.422;2022-12-07T14:37:19;5.80;99.90
5711;DHT22;61291;52.524;13.422;2022-12-07T14:39:45;5.80;99.90
5711;DHT22;61291;52.524;13.422;2022-12-07T14:42:10;5.70;99.90
5711;DHT22;61291;52.524;13.422;2022-12-07T14:44:36;5.70;99.90
5711;DHT22;61291;52.524;13.422;2022-12-07T14:47:01;5.60;99.90
5711;DHT22;61291;52.524;13.422;2022-12-07T14:49:27;5.60;99.90
5711;DHT22;61291;52.524;13.422;2022-12-07T14:51:52;5.50;99.90
5711;DHT22;61291;52.524;13.422;2022-12-07T14:54:19;5.40;99.90
5711;DHT22;61291;52.524;13.422;2022-12-07T14:56:46;5.30;99.90
5711;DHT22;61291;52.524;13.422;2022-12-07T14:59:15;5.20;99.90
5711;DHT22;61291;52.524;13.422;2022-12-07T15:01:41;5.20;99.90
5711;DHT22;61291;52.524;13.422;2022-12-07T15:04:06;5.10;99.90
5711;DHT22;61291;52.524;13.422;2022-12-07T15:06:34;5.00;99.90
5711;DHT22;61291;52.524;13.422;2022-12-07T15:09:00;4.80;99.90
5711;DHT22;61291;52.524;13.422;2022-12-07T15:11:25;4.70;99.90
5711;DHT22;61291;52.524;13.422;2022-12-07T15:13:51;4.50;99.90
5711;DHT22;61291;52.524;13.422;2022-12-07T15:16:38;4.40;99.90
5711;DHT22;61291;52.524;13.422;2022-12-07T15:19:17;4.20;99.90
5711;DHT22;61291;52.524;13.422;2022-12-07T15:21:48;4.00;99.90
5711;DHT22;61291;52.524;13.422;2022-12-07T15:24:13;4.00;99.90
5711;DHT22;61291;52.524;13.422;2022-12-07T15:26:40;3.90;99.90
5711;DHT22;61291;52.524;13.422;2022-12-07T15:29:06;3.90;99.90
5711;DHT22;61291;52.524;13.422;2022-12-07T15:31:32;3.90;99.90
5711;DHT22;61291;52.524;13.422;2022-12-07T15:33:57;3.90;99.90
5711;DHT22;61291;52.524;13.422;2022-12-07T15:36:26;3.80;99.90
5711;DHT22;61291;52.524;13.422;2022-12-07T15:38:51;3.80;99.90
5711;DHT22;61291;52.524;13.422;2022-12-07T15:41:17;3.70;99.90
5711;DHT22;61291;52.524;13.422;2022-12-07T15:43:43;3.90;99.90
5711;DHT22;61291;52.524;13.422;2022-12-07T15:46:36;4.10;99.90
5711;DHT22;61291;52.524;13.422;2022-12-07T15:49:03;4.30;99.90
5711;DHT22;61291;52.524;13.422;2022-12-07T15:51:30;4.30;99.90
5711;DHT22;61291;52.524;13.422;2022-12-07T15:53:57;4.40;99.90
5711;DHT22;61291;52.524;13.422;2022-12-07T15:56:23;4.50;99.90
5711;DHT22;61291;52.524;13.422;2022-12-07T15:58:48;4.50;99.90
5711;DHT22;61291;52.524;13.422;2022-12-07T16:01:18;4.60;99.90
5711;DHT22;61291;52.524;13.422;2022-12-07T16:03:44;4.60;99.90
5711;DHT22;61291;52.524;13.422;2022-12-07T16:06:11;4.60;99.90
5711;DHT22;61291;52.524;13.422;2022-12-07T16:08:42;4.60;99.90
5711;DHT22;61291;52.524;13.422;2022-12-07T16:11:08;4.60;99.90
5711;DHT22;61291;52.524;13.422;2022-12-07T16:13:34;4.60;99.90
5711;DHT22;61291;52.524;13.422;2022-12-07T16:16:07;4.60;99.90
5711;DHT22;61291;52.524;13.422;2022-12-07T16:18:33;4.60;99.90
5711;DHT22;61291;52.524;13.422;2022-12-07T16:20:59;4.40;99.90
5711;DHT22;61291;52.524;13.422;2022-12-07T16:23:24;4.30;99.90
5711;DHT22;61291;52.524;13.422;2022-12-07T16:25:50;4.20;99.90
5711;DHT22;61291;52.524;13.422;2022-12-07T16:28:15;4.10;99.90
5711;DHT22;61291;52.524;13.422;2022-12-07T16:30:41;4.00;99.90
5711;DHT22;61291;52.524;13.422;2022-12-07T16:33:06;3.90;99.90
5711;DHT22;61291;52.524;13.422;2022-12-07T16:35:32;3.90;99.90
5711;DHT22;61291;52.524;13.422;2022-12-07T16:37:57;3.90;99.90
5711;DHT22;61291;52.524;13.422;2022-12-07T16:40:23;3.70;99.90
5711;DHT22;61291;52.524;13.422;2022-12-07T16:42:48;3.60;99.90
5711;DHT22;61291;52.524;13.422;2022-12-07T16:45:14;3.50;99.90
5711;DHT22;61291;52.524;13.422;2022-12-07T16:47:40;3.40;99.90
5711;DHT22;61291;52.524;13.422;2022-12-07T16:50:06;3.30;99.90
5711;DHT22;61291;52.524;13.422;2022-12-07T16:52:33;3.20;99.90
5711;DHT22;61291;52.524;13.422;2022-12-07T16:54:59;3.20;99.90
5711;DHT22;61291;52.524;13.422;2022-12-07T16:57:24;3.10;99.90
5711;DHT22;61291;52.524;13.422;2022-12-07T16:59:51;3.20;99.90
5711;DHT22;61291;52.524;13.422;2022-12-07T17:02:18;3.10;99.90
5711;DHT22;61291;52.524;13.422;2022-12-07T17:04:43;3.00;99.90
5711;DHT22;61291;52.524;13.422;2022-12-07T17:07:09;2.90;99.90
5711;DHT22;61291;52.524;13.422;2022-12-07T17:09:35;3.00;99.90
5711;DHT22;61291;52.524;13.422;2022-12-07T17:12:01;2.90;99.90
5711;DHT22;61291;52.524;13.422;2022-12-07T17:14:27;2.90;99.90
5711;DHT22;61291;52.524;13.422;2022-12-07T17:17:11;2.70;99.90
5711;DHT22;61291;52.524;13.422;2022-12-07T17:19:37;2.60;99.90
5711;DHT22;61291;52.524;13.422;2022-12-07T17:22:03;2.60;99.90
5711;DHT22;61291;52.524;13.422;2022-12-07T17:24:28;2.60;99.90
5711;DHT22;61291;52.524;13.422;2022-12-07T17:26:53;2.60;99.90
5711;DHT22;61291;52.524;13.422;2022-12-07T17:29:19;2.60;99.90
5711;DHT22;61291;52.524;13.422;2022-12-07T17:31:46;2.50;99.90
5711;DHT22;61291;52.524;13.422;2022-12-07T17:34:13;2.50;99.90